sensor_id;sensor_type;location;lat;lon;timestamp;P1;durP1;ratioP1;P2;durP2;ratioP2
40729;SDS011;26418;50.070;8.436;2022-11-24T00:01:02;9.15;;;5.38;;
40729;SDS011;26418;50.070;8.436;2022-11-24T00:03:29;11.60;;;5.83;;
40729;SDS011;26418;50.070;8.436;2022-11-24T00:05:54;10.55;;;5.68;;
40729;SDS011;26418;50.070;8.436;2022-11-24T00:08:20;11.13;;;5.80;;
40729;SDS011;26418;50.070;8.436;2022-11-24T00:10:45;11.32;;;6.30;;
40729;SDS011;26418;50.070;8.436;2022-11-24T00:13:12;10.98;;;5.55;;
40729;SDS011;26418;50.070;8.436;2022-11-24T00:15:38;9.88;;;6.07;;
40729;SDS011;26418;50.070;8.436;2022-11-24T00:18:03;8.05;;;5.82;;
40729;SDS011;26418;50.070;8.436;2022-11-24T00:20:29;11.10;;;5.10;;
40729;SDS011;26418;50.070;8.436;2022-11-24T00:22:54;10.18;;;5.45;;
40729;SDS011;26418;50.070;8.436;2022-11-24T00:25:20;12.60;;;5.97;;
40729;SDS011;26418;50.070;8.436;2022-11-24T00:27:45;9.40;;;5.20;;
40729;SDS011;26418;50.070;8.436;2022-11-24T00:30:11;6.85;;;4.93;;
40729;SDS011;26418;50.070;8.436;2022-11-24T00:32:37;12.27;;;5.07;;
40729;SDS011;26418;50.070;8.436;2022-11-24T00:35:02;10.07;;;4.30;;
40729;SDS011;26418;50.070;8.436;2022-11-24T00:37:28;10.63;;;4.28;;
40729;SDS011;26418;50.070;8.436;2022-11-24T00:39:54;10.75;;;5.20;;
40729;SDS011;26418;50.070;8.436;2022-11-24T00:42:19;7.60;;;3.30;;
40729;SDS011;26418;50.070;8.436;2022-11-24T00:44:45;13.23;;;3.83;;
40729;SDS011;26418;50.070;8.436;2022-11-24T00:47:10;9.95;;;4.00;;
40729;SDS011;26418;50.070;8.436;2022-11-24T00:49:36;13.55;;;3.13;;
40729;SDS011;26418;50.070;8.436;2022-11-24T00:52:02;12.90;;;3.67;;
40729;SDS011;26418;50.070;8.436;2022-11-24T00:54:27;8.38;;;2.92;;
40729;SDS011;26418;50.070;8.436;2022-11-24T00:56:53;13.00;;;3.45;;
40729;SDS011;26418;50.070;8.436;2022-11-24T00:59:18;9.50;;;3.03;;
40729;SDS011;26418;50.070;8.436;2022-11-24T01:01:44;5.60;;;2.97;;
40729;SDS011;26418;50.070;8.436;2022-11-24T01:04:13;10.70;;;3.63;;
40729;SDS011;26418;50.070;8.436;2022-11-24T01:06:39;11.68;;;3.85;;
40729;SDS011;26418;50.070;8.436;2022-11-24T01:09:04;7.43;;;3.00;;
40729;SDS011;26418;50.070;8.436;2022-11-24T01:11:32;11.27;;;3.25;;
40729;SDS011;26418;50.070;8.436;2022-11-24T01:14:20;10.73;;;3.75;;
40729;SDS011;26418;50.070;8.436;2022-11-24T01:16:47;7.60;;;3.20;;
40729;SDS011;26418;50.070;8.436;2022-11-24T01:19:12;8.77;;;2.80;;
40729;SDS011;26418;50.070;8.436;2022-11-24T01:21:38;6.78;;;2.75;;
40729;SDS011;26418;50.070;8.436;2022-11-24T01:24:03;10.27;;;3.20;;
40729;SDS011;26418;50.070;8.436;2022-11-24T01:26:29;6.57;;;3.25;;
40729;SDS011;26418;50.070;8.436;2022-11-24T01:28:55;7.97;;;2.70;;
40729;SDS011;26418;50.070;8.436;2022-11-24T01:31:22;10.80;;;2.88;;
40729;SDS011;26418;50.070;8.436;2022-11-24T01:33:48;8.93;;;3.28;;
40729;SDS011;26418;50.070;8.436;2022-11-24T01:36:14;7.95;;;3.05;;
40729;SDS011;26418;50.070;8.436;2022-11-24T01:38:39;11.65;;;3.13;;
40729;SDS011;26418;50.070;8.436;2022-11-24T01:41:06;6.95;;;3.05;;
40729;SDS011;26418;50.070;8.436;2022-11-24T01:43:35;9.60;;;3.30;;
40729;SDS011;26418;50.070;8.436;2022-11-24T01:51:32;7.45;;;2.88;;
40729;SDS011;26418;50.070;8.436;2022-11-24T01:54:05;11.10;;;2.85;;
40729;SDS011;26418;50.070;8.436;2022-11-24T01:56:35;7.25;;;2.50;;
40729;SDS011;26418;50.070;8.436;2022-11-24T01:59:04;9.43;;;3.08;;
40729;SDS011;26418;50.070;8.436;2022-11-24T02:01:34;12.70;;;3.65;;
40729;SDS011;26418;50.070;8.436;2022-11-24T02:04:00;8.45;;;2.90;;
40729;SDS011;26418;50.070;8.436;2022-11-24T02:06:29;11.55;;;2.85;;
40729;SDS011;26418;50.070;8.436;2022-11-24T02:09:05;10.88;;;3.08;;
40729;SDS011;26418;50.070;8.436;2022-11-24T02:11:33;15.18;;;4.05;;
40729;SDS011;26418;50.070;8.436;2022-11-24T02:14:01;9.57;;;3.03;;
40729;SDS011;26418;50.070;8.436;2022-11-24T02:16:29;9.45;;;2.90;;
40729;SDS011;26418;50.070;8.436;2022-11-24T02:18:54;13.07;;;3.50;;
40729;SDS011;26418;50.070;8.436;2022-11-24T02:21:20;15.85;;;3.38;;
40729;SDS011;26418;50.070;8.436;2022-11-24T02:24:03;12.90;;;3.05;;
40729;SDS011;26418;50.070;8.436;2022-11-24T02:26:40;9.73;;;2.63;;
40729;SDS011;26418;50.070;8.436;2022-11-24T02:29:11;12.68;;;3.30;;
40729;SDS011;26418;50.070;8.436;2022-11-24T02:31:42;9.27;;;3.58;;
40729;SDS011;26418;50.070;8.436;2022-11-24T02:34:12;8.02;;;3.63;;
40729;SDS011;26418;50.070;8.436;2022-11-24T02:36:37;12.15;;;3.50;;
40729;SDS011;26418;50.070;8.436;2022-11-24T02:39:04;5.28;;;2.50;;
40729;SDS011;26418;50.070;8.436;2022-11-24T02:41:34;12.32;;;3.47;;
40729;SDS011;26418;50.070;8.436;2022-11-24T02:44:01;10.18;;;3.83;;
40729;SDS011;26418;50.070;8.436;2022-11-24T02:46:26;8.75;;;3.08;;
40729;SDS011;26418;50.070;8.436;2022-11-24T02:48:52;11.90;;;4.03;;
40729;SDS011;26418;50.070;8.436;2022-11-24T02:51:18;14.07;;;3.78;;
40729;SDS011;26418;50.070;8.436;2022-11-24T02:53:43;11.00;;;4.07;;
40729;SDS011;26418;50.070;8.436;2022-11-24T02:56:09;13.07;;;3.30;;
40729;SDS011;26418;50.070;8.436;2022-11-24T02:58:34;7.88;;;2.70;;
40729;SDS011;26418;50.070;8.436;2022-11-24T03:01:01;7.18;;;2.60;;
40729;SDS011;26418;50.070;8.436;2022-11-24T03:03:27;9.80;;;2.25;;
40729;SDS011;26418;50.070;8.436;2022-11-24T03:05:52;11.02;;;2.53;;
40729;SDS011;26418;50.070;8.436;2022-11-24T03:08:18;4.97;;;1.80;;
40729;SDS011;26418;50.070;8.436;2022-11-24T03:10:44;6.97;;;2.35;;
40729;SDS011;26418;50.070;8.436;2022-11-24T03:13:09;16.55;;;3.55;;
40729;SDS011;26418;50.070;8.436;2022-11-24T03:15:35;6.43;;;2.80;;
40729;SDS011;26418;50.070;8.436;2022-11-24T03:18:01;10.35;;;2.88;;
40729;SDS011;26418;50.070;8.436;2022-11-24T03:20:26;5.75;;;2.08;;
40729;SDS011;26418;50.070;8.436;2022-11-24T03:22:53;6.13;;;2.80;;
40729;SDS011;26418;50.070;8.436;2022-11-24T03:25:18;10.88;;;2.72;;
40729;SDS011;26418;50.070;8.436;2022-11-24T03:27:44;7.55;;;2.58;;
40729;SDS011;26418;50.070;8.436;2022-11-24T03:30:10;7.43;;;2.00;;
40729;SDS011;26418;50.070;8.436;2022-11-24T03:32:36;12.20;;;2.83;;
40729;SDS011;26418;50.070;8.436;2022-11-24T03:35:02;6.50;;;2.53;;
40729;SDS011;26418;50.070;8.436;2022-11-24T03:37:28;5.80;;;2.80;;
40729;SDS011;26418;50.070;8.436;2022-11-24T03:39:53;10.25;;;2.65;;
40729;SDS011;26418;50.070;8.436;2022-11-24T03:42:19;12.93;;;3.33;;
40729;SDS011;26418;50.070;8.436;2022-11-24T03:44:45;8.98;;;2.67;;
40729;SDS011;26418;50.070;8.436;2022-11-24T03:47:10;11.52;;;3.13;;
40729;SDS011;26418;50.070;8.436;2022-11-24T03:49:36;12.25;;;3.55;;
40729;SDS011;26418;50.070;8.436;2022-11-24T03:52:02;8.45;;;3.08;;
40729;SDS011;26418;50.070;8.436;2022-11-24T03:54:28;11.63;;;3.58;;
40729;SDS011;26418;50.070;8.436;2022-11-24T03:56:54;11.90;;;3.58;;
40729;SDS011;26418;50.070;8.436;2022-11-24T03:59:20;9.82;;;3.35;;
40729;SDS011;26418;50.070;8.436;2022-11-24T04:01:45;12.27;;;3.78;;
40729;SDS011;26418;50.070;8.436;2022-11-24T04:04:11;13.75;;;3.20;;
40729;SDS011;26418;50.070;8.436;2022-11-24T04:06:37;13.43;;;3.42;;
40729;SDS011;26418;50.070;8.436;2022-11-24T04:09:03;9.73;;;3.15;;
40729;SDS011;26418;50.070;8.436;2022-11-24T04:11:29;9.57;;;3.78;;
40729;SDS011;26418;50.070;8.436;2022-11-24T04:14:13;6.88;;;2.63;;
40729;SDS011;26418;50.070;8.436;2022-11-24T04:16:39;8.32;;;2.78;;
40729;SDS011;26418;50.070;8.436;2022-11-24T04:19:05;14.13;;;3.58;;
40729;SDS011;26418;50.070;8.436;2022-11-24T04:21:30;11.25;;;3.67;;
40729;SDS011;26418;50.070;8.436;2022-11-24T04:23:56;13.82;;;4.00;;
40729;SDS011;26418;50.070;8.436;2022-11-24T04:26:22;5.72;;;2.90;;
40729;SDS011;26418;50.070;8.436;2022-11-24T04:28:47;6.25;;;2.70;;
40729;SDS011;26418;50.070;8.436;2022-11-24T04:31:13;5.75;;;2.45;;
40729;SDS011;26418;50.070;8.436;2022-11-24T04:33:38;7.07;;;2.80;;
40729;SDS011;26418;50.070;8.436;2022-11-24T04:36:04;5.60;;;2.72;;
40729;SDS011;26418;50.070;8.436;2022-11-24T04:38:30;5.70;;;2.85;;
40729;SDS011;26418;50.070;8.436;2022-11-24T04:40:59;9.48;;;3.22;;
40729;SDS011;26418;50.070;8.436;2022-11-24T04:43:27;12.77;;;3.92;;
40729;SDS011;26418;50.070;8.436;2022-11-24T04:45:53;10.50;;;4.10;;
40729;SDS011;26418;50.070;8.436;2022-11-24T04:48:19;8.40;;;4.13;;
40729;SDS011;26418;50.070;8.436;2022-11-24T04:50:45;10.77;;;4.30;;
40729;SDS011;26418;50.070;8.436;2022-11-24T04:53:11;9.30;;;4.30;;
40729;SDS011;26418;50.070;8.436;2022-11-24T04:55:37;9.10;;;4.35;;
40729;SDS011;26418;50.070;8.436;2022-11-24T04:58:05;11.48;;;5.22;;
40729;SDS011;26418;50.070;8.436;2022-11-24T05:00:32;9.30;;;5.30;;
40729;SDS011;26418;50.070;8.436;2022-11-24T05:02:58;17.05;;;5.93;;
40729;SDS011;26418;50.070;8.436;2022-11-24T05:05:23;11.15;;;5.40;;
40729;SDS011;26418;50.070;8.436;2022-11-24T05:07:49;10.43;;;4.30;;
40729;SDS011;26418;50.070;8.436;2022-11-24T05:10:15;15.63;;;6.00;;
40729;SDS011;26418;50.070;8.436;2022-11-24T05:12:59;11.00;;;4.47;;
40729;SDS011;26418;50.070;8.436;2022-11-24T05:15:26;18.35;;;5.32;;
40729;SDS011;26418;50.070;8.436;2022-11-24T05:17:52;12.73;;;5.10;;
40729;SDS011;26418;50.070;8.436;2022-11-24T05:20:18;9.00;;;4.47;;
40729;SDS011;26418;50.070;8.436;2022-11-24T05:22:43;12.15;;;4.15;;
40729;SDS011;26418;50.070;8.436;2022-11-24T05:25:09;12.60;;;5.30;;
40729;SDS011;26418;50.070;8.436;2022-11-24T05:27:35;20.75;;;5.82;;
40729;SDS011;26418;50.070;8.436;2022-11-24T05:30:00;13.85;;;5.20;;
40729;SDS011;26418;50.070;8.436;2022-11-24T05:32:26;8.73;;;4.68;;
40729;SDS011;26418;50.070;8.436;2022-11-24T05:34:52;12.05;;;4.55;;
40729;SDS011;26418;50.070;8.436;2022-11-24T05:37:19;13.40;;;4.78;;
40729;SDS011;26418;50.070;8.436;2022-11-24T05:39:45;9.43;;;4.25;;
40729;SDS011;26418;50.070;8.436;2022-11-24T05:42:10;8.57;;;4.45;;
40729;SDS011;26418;50.070;8.436;2022-11-24T05:44:55;16.30;;;4.95;;
40729;SDS011;26418;50.070;8.436;2022-11-24T05:47:21;14.85;;;5.07;;
40729;SDS011;26418;50.070;8.436;2022-11-24T05:49:47;10.60;;;4.18;;
40729;SDS011;26418;50.070;8.436;2022-11-24T05:52:12;14.57;;;5.35;;
40729;SDS011;26418;50.070;8.436;2022-11-24T05:54:38;11.23;;;5.25;;
40729;SDS011;26418;50.070;8.436;2022-11-24T05:57:03;14.68;;;5.82;;
40729;SDS011;26418;50.070;8.436;2022-11-24T05:59:29;14.65;;;5.00;;
40729;SDS011;26418;50.070;8.436;2022-11-24T06:01:55;13.73;;;4.72;;
40729;SDS011;26418;50.070;8.436;2022-11-24T06:04:20;11.52;;;5.05;;
40729;SDS011;26418;50.070;8.436;2022-11-24T06:06:46;13.20;;;5.07;;
40729;SDS011;26418;50.070;8.436;2022-11-24T06:09:11;20.42;;;5.07;;
40729;SDS011;26418;50.070;8.436;2022-11-24T06:11:37;10.57;;;5.15;;
40729;SDS011;26418;50.070;8.436;2022-11-24T06:14:02;14.00;;;4.43;;
40729;SDS011;26418;50.070;8.436;2022-11-24T06:16:28;18.70;;;5.57;;
40729;SDS011;26418;50.070;8.436;2022-11-24T06:18:54;8.80;;;4.63;;
40729;SDS011;26418;50.070;8.436;2022-11-24T06:21:19;8.07;;;2.40;;
40729;SDS011;26418;50.070;8.436;2022-11-24T06:23:48;9.32;;;3.03;;
40729;SDS011;26418;50.070;8.436;2022-11-24T06:26:13;4.43;;;2.33;;
40729;SDS011;26418;50.070;8.436;2022-11-24T06:28:39;6.28;;;1.98;;
40729;SDS011;26418;50.070;8.436;2022-11-24T06:31:05;6.03;;;2.20;;
40729;SDS011;26418;50.070;8.436;2022-11-24T06:33:34;5.50;;;2.42;;
40729;SDS011;26418;50.070;8.436;2022-11-24T06:36:02;6.35;;;2.40;;
40729;SDS011;26418;50.070;8.436;2022-11-24T06:38:30;5.90;;;2.63;;
40729;SDS011;26418;50.070;8.436;2022-11-24T06:41:00;11.23;;;3.20;;
40729;SDS011;26418;50.070;8.436;2022-11-24T06:43:35;15.45;;;3.00;;
40729;SDS011;26418;50.070;8.436;2022-11-24T06:46:01;20.55;;;3.83;;
40729;SDS011;26418;50.070;8.436;2022-11-24T06:48:27;13.75;;;3.38;;
40729;SDS011;26418;50.070;8.436;2022-11-24T06:50:57;14.52;;;4.10;;
40729;SDS011;26418;50.070;8.436;2022-11-24T06:53:23;15.95;;;3.72;;
40729;SDS011;26418;50.070;8.436;2022-11-24T06:55:49;18.50;;;5.40;;
40729;SDS011;26418;50.070;8.436;2022-11-24T06:58:15;22.35;;;5.28;;
40729;SDS011;26418;50.070;8.436;2022-11-24T07:00:41;15.32;;;4.35;;
40729;SDS011;26418;50.070;8.436;2022-11-24T07:03:09;17.08;;;4.60;;
40729;SDS011;26418;50.070;8.436;2022-11-24T07:05:39;16.77;;;4.10;;
40729;SDS011;26418;50.070;8.436;2022-11-24T07:08:05;15.90;;;3.78;;
40729;SDS011;26418;50.070;8.436;2022-11-24T07:10:30;10.73;;;3.25;;
40729;SDS011;26418;50.070;8.436;2022-11-24T07:12:56;10.63;;;3.63;;
40729;SDS011;26418;50.070;8.436;2022-11-24T07:15:21;9.57;;;2.85;;
40729;SDS011;26418;50.070;8.436;2022-11-24T07:17:47;8.75;;;3.17;;
40729;SDS011;26418;50.070;8.436;2022-11-24T07:20:12;7.38;;;2.72;;
40729;SDS011;26418;50.070;8.436;2022-11-24T07:22:38;7.28;;;2.40;;
40729;SDS011;26418;50.070;8.436;2022-11-24T07:25:04;11.63;;;2.80;;
40729;SDS011;26418;50.070;8.436;2022-11-24T07:27:31;17.40;;;3.20;;
40729;SDS011;26418;50.070;8.436;2022-11-24T07:29:57;13.18;;;3.63;;
40729;SDS011;26418;50.070;8.436;2022-11-24T07:32:23;7.97;;;3.13;;
40729;SDS011;26418;50.070;8.436;2022-11-24T07:34:48;13.60;;;3.03;;
40729;SDS011;26418;50.070;8.436;2022-11-24T07:37:14;14.63;;;3.42;;
40729;SDS011;26418;50.070;8.436;2022-11-24T07:39:40;10.15;;;2.72;;
40729;SDS011;26418;50.070;8.436;2022-11-24T07:42:05;10.00;;;2.85;;
40729;SDS011;26418;50.070;8.436;2022-11-24T07:44:32;12.85;;;3.00;;
40729;SDS011;26418;50.070;8.436;2022-11-24T07:46:58;7.43;;;2.40;;
40729;SDS011;26418;50.070;8.436;2022-11-24T07:49:23;7.55;;;2.58;;
40729;SDS011;26418;50.070;8.436;2022-11-24T07:51:49;13.73;;;3.20;;
40729;SDS011;26418;50.070;8.436;2022-11-24T07:54:14;10.20;;;2.58;;
40729;SDS011;26418;50.070;8.436;2022-11-24T07:56:40;13.70;;;3.25;;
40729;SDS011;26418;50.070;8.436;2022-11-24T07:59:06;11.00;;;3.55;;
40729;SDS011;26418;50.070;8.436;2022-11-24T08:01:31;8.48;;;2.40;;
40729;SDS011;26418;50.070;8.436;2022-11-24T08:03:57;15.85;;;3.30;;
40729;SDS011;26418;50.070;8.436;2022-11-24T08:06:22;9.48;;;3.05;;
40729;SDS011;26418;50.070;8.436;2022-11-24T08:08:48;11.90;;;3.75;;
40729;SDS011;26418;50.070;8.436;2022-11-24T08:11:14;16.25;;;2.83;;
40729;SDS011;26418;50.070;8.436;2022-11-24T08:13:41;10.07;;;2.88;;
40729;SDS011;26418;50.070;8.436;2022-11-24T08:16:08;15.52;;;3.25;;
40729;SDS011;26418;50.070;8.436;2022-11-24T08:18:36;12.95;;;3.10;;
40729;SDS011;26418;50.070;8.436;2022-11-24T08:21:02;13.10;;;3.78;;
40729;SDS011;26418;50.070;8.436;2022-11-24T08:23:29;12.20;;;3.35;;
40729;SDS011;26418;50.070;8.436;2022-11-24T08:25:55;12.73;;;3.28;;
40729;SDS011;26418;50.070;8.436;2022-11-24T08:28:24;7.63;;;2.83;;
40729;SDS011;26418;50.070;8.436;2022-11-24T08:30:50;20.00;;;3.63;;
40729;SDS011;26418;50.070;8.436;2022-11-24T08:33:15;9.55;;;3.22;;
40729;SDS011;26418;50.070;8.436;2022-11-24T08:35:41;11.18;;;2.80;;
40729;SDS011;26418;50.070;8.436;2022-11-24T08:38:07;15.15;;;2.88;;
40729;SDS011;26418;50.070;8.436;2022-11-24T08:40:32;10.63;;;2.88;;
40729;SDS011;26418;50.070;8.436;2022-11-24T08:42:59;11.90;;;3.60;;
40729;SDS011;26418;50.070;8.436;2022-11-24T08:45:25;9.73;;;2.70;;
40729;SDS011;26418;50.070;8.436;2022-11-24T08:47:55;9.90;;;2.72;;
40729;SDS011;26418;50.070;8.436;2022-11-24T08:50:22;11.20;;;2.88;;
40729;SDS011;26418;50.070;8.436;2022-11-24T08:52:50;13.60;;;2.70;;
40729;SDS011;26418;50.070;8.436;2022-11-24T08:55:16;8.57;;;2.88;;
40729;SDS011;26418;50.070;8.436;2022-11-24T08:57:42;7.80;;;2.60;;
40729;SDS011;26418;50.070;8.436;2022-11-24T09:00:08;11.43;;;2.70;;
40729;SDS011;26418;50.070;8.436;2022-11-24T09:02:34;6.03;;;2.25;;
40729;SDS011;26418;50.070;8.436;2022-11-24T09:05:00;9.02;;;2.78;;
40729;SDS011;26418;50.070;8.436;2022-11-24T09:07:26;11.52;;;3.08;;
40729;SDS011;26418;50.070;8.436;2022-11-24T09:09:51;5.90;;;2.13;;
40729;SDS011;26418;50.070;8.436;2022-11-24T09:12:17;8.30;;;2.55;;
40729;SDS011;26418;50.070;8.436;2022-11-24T09:14:42;10.02;;;2.40;;
40729;SDS011;26418;50.070;8.436;2022-11-24T09:17:08;15.70;;;3.05;;
40729;SDS011;26418;50.070;8.436;2022-11-24T09:19:34;5.57;;;2.28;;
40729;SDS011;26418;50.070;8.436;2022-11-24T09:21:59;11.38;;;2.90;;
40729;SDS011;26418;50.070;8.436;2022-11-24T09:24:24;5.70;;;2.70;;
40729;SDS011;26418;50.070;8.436;2022-11-24T09:26:51;12.00;;;3.30;;
40729;SDS011;26418;50.070;8.436;2022-11-24T09:29:17;11.63;;;2.67;;
40729;SDS011;26418;50.070;8.436;2022-11-24T09:31:43;7.65;;;2.50;;
40729;SDS011;26418;50.070;8.436;2022-11-24T09:34:10;10.38;;;2.72;;
40729;SDS011;26418;50.070;8.436;2022-11-24T09:36:38;10.48;;;2.53;;
40729;SDS011;26418;50.070;8.436;2022-11-24T09:39:03;14.00;;;2.38;;
40729;SDS011;26418;50.070;8.436;2022-11-24T09:47:15;14.40;;;2.78;;
40729;SDS011;26418;50.070;8.436;2022-11-24T10:00:36;15.90;;;2.67;;
40729;SDS011;26418;50.070;8.436;2022-11-24T10:03:03;9.88;;;2.33;;
40729;SDS011;26418;50.070;8.436;2022-11-24T10:05:29;19.58;;;3.35;;
40729;SDS011;26418;50.070;8.436;2022-11-24T10:10:54;8.82;;;2.53;;
40729;SDS011;26418;50.070;8.436;2022-11-24T10:16:51;9.48;;;1.58;;
40729;SDS011;26418;50.070;8.436;2022-11-24T10:19:32;8.82;;;2.85;;
40729;SDS011;26418;50.070;8.436;2022-11-24T10:25:11;6.97;;;1.90;;
40729;SDS011;26418;50.070;8.436;2022-11-24T10:27:55;9.65;;;2.33;;
40729;SDS011;26418;50.070;8.436;2022-11-24T10:30:25;14.52;;;2.45;;
40729;SDS011;26418;50.070;8.436;2022-11-24T10:32:55;8.23;;;1.98;;
40729;SDS011;26418;50.070;8.436;2022-11-24T10:35:47;7.45;;;2.00;;
40729;SDS011;26418;50.070;8.436;2022-11-24T10:40:53;6.80;;;2.15;;
40729;SDS011;26418;50.070;8.436;2022-11-24T10:43:21;10.85;;;2.40;;
40729;SDS011;26418;50.070;8.436;2022-11-24T10:45:47;11.82;;;1.95;;
40729;SDS011;26418;50.070;8.436;2022-11-24T10:48:21;5.57;;;2.22;;
40729;SDS011;26418;50.070;8.436;2022-11-24T10:50:52;11.48;;;2.88;;
40729;SDS011;26418;50.070;8.436;2022-11-24T10:56:05;9.30;;;2.97;;
40729;SDS011;26418;50.070;8.436;2022-11-24T11:01:16;11.13;;;1.98;;
40729;SDS011;26418;50.070;8.436;2022-11-24T11:03:54;8.50;;;1.92;;
40729;SDS011;26418;50.070;8.436;2022-11-24T11:06:23;9.10;;;2.72;;
40729;SDS011;26418;50.070;8.436;2022-11-24T11:11:30;5.95;;;1.65;;
40729;SDS011;26418;50.070;8.436;2022-11-24T11:13:57;10.98;;;1.75;;
40729;SDS011;26418;50.070;8.436;2022-11-24T11:16:24;4.53;;;1.35;;
40729;SDS011;26418;50.070;8.436;2022-11-24T11:18:50;8.45;;;2.03;;
40729;SDS011;26418;50.070;8.436;2022-11-24T11:21:24;11.68;;;2.35;;
40729;SDS011;26418;50.070;8.436;2022-11-24T11:24:12;12.27;;;1.95;;
40729;SDS011;26418;50.070;8.436;2022-11-24T11:26:41;9.32;;;1.58;;
40729;SDS011;26418;50.070;8.436;2022-11-24T11:31:36;5.95;;;1.55;;
40729;SDS011;26418;50.070;8.436;2022-11-24T11:39:33;7.60;;;1.55;;
40729;SDS011;26418;50.070;8.436;2022-11-24T11:42:05;7.65;;;1.58;;
40729;SDS011;26418;50.070;8.436;2022-11-24T11:47:28;11.05;;;1.50;;
40729;SDS011;26418;50.070;8.436;2022-11-24T11:49:55;6.57;;;1.80;;
40729;SDS011;26418;50.070;8.436;2022-11-24T11:52:32;6.97;;;1.30;;
40729;SDS011;26418;50.070;8.436;2022-11-24T11:55:19;5.03;;;1.33;;
40729;SDS011;26418;50.070;8.436;2022-11-24T12:00:55;8.68;;;1.45;;
40729;SDS011;26418;50.070;8.436;2022-11-24T12:26:20;11.98;;;1.92;;
40729;SDS011;26418;50.070;8.436;2022-11-24T12:40:04;13.90;;;1.33;;
40729;SDS011;26418;50.070;8.436;2022-11-24T12:45:27;7.93;;;1.80;;
40729;SDS011;26418;50.070;8.436;2022-11-24T12:50:45;10.73;;;2.35;;
40729;SDS011;26418;50.070;8.436;2022-11-24T12:53:15;8.18;;;1.33;;
40729;SDS011;26418;50.070;8.436;2022-11-24T12:55:46;4.18;;;1.10;;
40729;SDS011;26418;50.070;8.436;2022-11-24T12:58:28;5.68;;;1.60;;
40729;SDS011;26418;50.070;8.436;2022-11-24T13:06:18;8.65;;;1.40;;
40729;SDS011;26418;50.070;8.436;2022-11-24T13:08:48;6.45;;;1.35;;
40729;SDS011;26418;50.070;8.436;2022-11-24T13:16:56;7.82;;;1.33;;
40729;SDS011;26418;50.070;8.436;2022-11-24T13:19:24;5.35;;;1.48;;
40729;SDS011;26418;50.070;8.436;2022-11-24T13:21:59;7.88;;;1.40;;
40729;SDS011;26418;50.070;8.436;2022-11-24T13:24:35;9.40;;;1.95;;
40729;SDS011;26418;50.070;8.436;2022-11-24T13:29:47;8.05;;;1.35;;
40729;SDS011;26418;50.070;8.436;2022-11-24T13:35:12;7.10;;;1.40;;
40729;SDS011;26418;50.070;8.436;2022-11-24T13:53:21;6.68;;;1.30;;
40729;SDS011;26418;50.070;8.436;2022-11-24T13:55:57;4.03;;;0.90;;
40729;SDS011;26418;50.070;8.436;2022-11-24T13:58:25;4.45;;;1.50;;
40729;SDS011;26418;50.070;8.436;2022-11-24T14:00:59;7.00;;;1.60;;
40729;SDS011;26418;50.070;8.436;2022-11-24T14:03:26;5.68;;;1.35;;
40729;SDS011;26418;50.070;8.436;2022-11-24T14:05:55;7.93;;;2.20;;
40729;SDS011;26418;50.070;8.436;2022-11-24T14:08:31;10.93;;;1.92;;
40729;SDS011;26418;50.070;8.436;2022-11-24T14:11:00;5.82;;;1.52;;
40729;SDS011;26418;50.070;8.436;2022-11-24T14:13:31;7.40;;;1.52;;
40729;SDS011;26418;50.070;8.436;2022-11-24T14:16:04;6.43;;;2.30;;
40729;SDS011;26418;50.070;8.436;2022-11-24T14:18:34;7.00;;;1.58;;
40729;SDS011;26418;50.070;8.436;2022-11-24T14:26:36;7.35;;;1.83;;
40729;SDS011;26418;50.070;8.436;2022-11-24T14:29:13;7.13;;;1.25;;
40729;SDS011;26418;50.070;8.436;2022-11-24T14:31:56;9.55;;;1.67;;
40729;SDS011;26418;50.070;8.436;2022-11-24T14:34:24;4.93;;;1.27;;
40729;SDS011;26418;50.070;8.436;2022-11-24T14:36:52;7.65;;;1.80;;
40729;SDS011;26418;50.070;8.436;2022-11-24T14:39:20;13.10;;;1.60;;
40729;SDS011;26418;50.070;8.436;2022-11-24T14:41:59;12.18;;;2.08;;
40729;SDS011;26418;50.070;8.436;2022-11-24T14:44:32;10.18;;;1.92;;
40729;SDS011;26418;50.070;8.436;2022-11-24T14:47:15;8.23;;;1.23;;
40729;SDS011;26418;50.070;8.436;2022-11-24T14:49:48;6.28;;;1.75;;
40729;SDS011;26418;50.070;8.436;2022-11-24T14:52:15;9.25;;;2.22;;
40729;SDS011;26418;50.070;8.436;2022-11-24T14:57:35;8.55;;;2.00;;
40729;SDS011;26418;50.070;8.436;2022-11-24T15:00:06;6.40;;;2.25;;
40729;SDS011;26418;50.070;8.436;2022-11-24T15:02:40;5.20;;;1.42;;
40729;SDS011;26418;50.070;8.436;2022-11-24T15:05:09;18.05;;;1.95;;
40729;SDS011;26418;50.070;8.436;2022-11-24T15:07:35;5.97;;;2.05;;
40729;SDS011;26418;50.070;8.436;2022-11-24T15:10:04;5.60;;;1.77;;
40729;SDS011;26418;50.070;8.436;2022-11-24T15:12:47;5.50;;;1.83;;
40729;SDS011;26418;50.070;8.436;2022-11-24T15:15:21;7.50;;;1.33;;
40729;SDS011;26418;50.070;8.436;2022-11-24T15:20:27;5.72;;;1.83;;
40729;SDS011;26418;50.070;8.436;2022-11-24T15:25:40;3.97;;;1.67;;
40729;SDS011;26418;50.070;8.436;2022-11-24T15:28:06;9.18;;;2.58;;
40729;SDS011;26418;50.070;8.436;2022-11-24T15:30:33;11.32;;;2.60;;
40729;SDS011;26418;50.070;8.436;2022-11-24T15:33:00;13.98;;;2.67;;
40729;SDS011;26418;50.070;8.436;2022-11-24T15:35:29;6.30;;;1.60;;
40729;SDS011;26418;50.070;8.436;2022-11-24T15:37:56;9.57;;;2.55;;
40729;SDS011;26418;50.070;8.436;2022-11-24T15:40:22;9.15;;;1.85;;
40729;SDS011;26418;50.070;8.436;2022-11-24T15:42:49;4.72;;;1.90;;
40729;SDS011;26418;50.070;8.436;2022-11-24T15:45:17;5.57;;;1.52;;
40729;SDS011;26418;50.070;8.436;2022-11-24T15:47:43;9.40;;;2.47;;
40729;SDS011;26418;50.070;8.436;2022-11-24T15:50:09;12.65;;;2.67;;
40729;SDS011;26418;50.070;8.436;2022-11-24T15:52:35;8.57;;;3.25;;
40729;SDS011;26418;50.070;8.436;2022-11-24T15:55:01;10.23;;;2.70;;
40729;SDS011;26418;50.070;8.436;2022-11-24T15:57:27;18.00;;;4.90;;
40729;SDS011;26418;50.070;8.436;2022-11-24T15:59:53;13.73;;;5.43;;
40729;SDS011;26418;50.070;8.436;2022-11-24T16:02:18;17.25;;;3.75;;
40729;SDS011;26418;50.070;8.436;2022-11-24T16:04:46;9.45;;;4.25;;
40729;SDS011;26418;50.070;8.436;2022-11-24T16:07:12;15.18;;;5.35;;
40729;SDS011;26418;50.070;8.436;2022-11-24T16:09:38;21.52;;;8.02;;
40729;SDS011;26418;50.070;8.436;2022-11-24T16:12:04;26.38;;;8.90;;
40729;SDS011;26418;50.070;8.436;2022-11-24T16:14:32;32.63;;;10.43;;
40729;SDS011;26418;50.070;8.436;2022-11-24T16:16:58;29.70;;;11.20;;
40729;SDS011;26418;50.070;8.436;2022-11-24T16:19:24;20.52;;;8.13;;
40729;SDS011;26418;50.070;8.436;2022-11-24T16:21:49;12.77;;;4.30;;
40729;SDS011;26418;50.070;8.436;2022-11-24T16:24:15;14.57;;;4.07;;
40729;SDS011;26418;50.070;8.436;2022-11-24T16:26:41;10.15;;;3.35;;
40729;SDS011;26418;50.070;8.436;2022-11-24T16:29:06;9.95;;;3.17;;
40729;SDS011;26418;50.070;8.436;2022-11-24T16:31:32;7.82;;;2.95;;
40729;SDS011;26418;50.070;8.436;2022-11-24T16:33:57;8.27;;;2.90;;
40729;SDS011;26418;50.070;8.436;2022-11-24T16:36:23;7.90;;;2.60;;
40729;SDS011;26418;50.070;8.436;2022-11-24T16:38:49;9.55;;;3.28;;
40729;SDS011;26418;50.070;8.436;2022-11-24T16:41:14;14.50;;;4.38;;
40729;SDS011;26418;50.070;8.436;2022-11-24T16:43:40;16.88;;;4.38;;
40729;SDS011;26418;50.070;8.436;2022-11-24T16:46:22;7.93;;;3.25;;
40729;SDS011;26418;50.070;8.436;2022-11-24T16:48:49;12.15;;;4.50;;
40729;SDS011;26418;50.070;8.436;2022-11-24T16:51:17;10.38;;;3.80;;
40729;SDS011;26418;50.070;8.436;2022-11-24T16:53:44;5.55;;;2.63;;
40729;SDS011;26418;50.070;8.436;2022-11-24T16:56:10;6.53;;;2.70;;
40729;SDS011;26418;50.070;8.436;2022-11-24T16:58:37;6.60;;;2.75;;
40729;SDS011;26418;50.070;8.436;2022-11-24T17:01:08;6.18;;;2.25;;
40729;SDS011;26418;50.070;8.436;2022-11-24T17:03:36;4.38;;;1.50;;
40729;SDS011;26418;50.070;8.436;2022-11-24T17:06:02;6.20;;;2.60;;